sensor_id;sensor_type;location;lat;lon;timestamp;temperature;humidity
68439;SHT31;55421;51.600;5.718;2022-11-15T00:01:06;9.03;84.00
68439;SHT31;55421;51.600;5.718;2022-11-15T00:03:34;9.06;84.06
68439;SHT31;55421;51.600;5.718;2022-11-15T00:06:02;9.11;84.13
68439;SHT31;55421;51.600;5.718;2022-11-15T00:08:31;9.15;84.22
68439;SHT31;55421;51.600;5.718;2022-11-15T00:10:59;9.17;84.36
68439;SHT31;55421;51.600;5.718;2022-11-15T00:13:27;9.19;84.40
68439;SHT31;55421;51.600;5.718;2022-11-15T00:15:59;9.22;84.40
68439;SHT31;55421;51.600;5.718;2022-11-15T00:18:28;9.23;84.52
68439;SHT31;55421;51.600;5.718;2022-11-15T00:20:56;9.28;84.61
68439;SHT31;55421;51.600;5.718;2022-11-15T00:23:30;9.34;84.60
68439;SHT31;55421;51.600;5.718;2022-11-15T00:25:57;9.39;84.64
68439;SHT31;55421;51.600;5.718;2022-11-15T00:28:24;9.41;84.71
68439;SHT31;55421;51.600;5.718;2022-11-15T00:30:52;9.42;84.80
68439;SHT31;55421;51.600;5.718;2022-11-15T00:33:19;9.43;84.81
68439;SHT31;55421;51.600;5.718;2022-11-15T00:35:45;9.45;85.06
68439;SHT31;55421;51.600;5.718;2022-11-15T00:38:12;9.47;85.07
68439;SHT31;55421;51.600;5.718;2022-11-15T00:40:38;9.52;85.10
68439;SHT31;55421;51.600;5.718;2022-11-15T00:43:05;9.55;85.09
68439;SHT31;55421;51.600;5.718;2022-11-15T00:45:31;9.59;85.11
68439;SHT31;55421;51.600;5.718;2022-11-15T00:47:58;9.62;85.10
68439;SHT31;55421;51.600;5.718;2022-11-15T00:50:24;9.63;85.11
68439;SHT31;55421;51.600;5.718;2022-11-15T00:52:51;9.68;85.20
68439;SHT31;55421;51.600;5.718;2022-11-15T00:55:18;9.70;85.21
68439;SHT31;55421;51.600;5.718;2022-11-15T00:57:45;9.75;85.26
68439;SHT31;55421;51.600;5.718;2022-11-15T01:00:12;9.78;85.21
68439;SHT31;55421;51.600;5.718;2022-11-15T01:02:40;9.81;85.20
68439;SHT31;55421;51.600;5.718;2022-11-15T01:05:07;9.82;85.20
68439;SHT31;55421;51.600;5.718;2022-11-15T01:07:34;9.83;85.13
68439;SHT31;55421;51.600;5.718;2022-11-15T01:10:00;9.84;85.10
68439;SHT31;55421;51.600;5.718;2022-11-15T01:12:27;9.87;85.14
68439;SHT31;55421;51.600;5.718;2022-11-15T01:14:53;9.91;85.20
68439;SHT31;55421;51.600;5.718;2022-11-15T01:17:20;9.94;85.20
68439;SHT31;55421;51.600;5.718;2022-11-15T01:19:47;9.94;85.21
68439;SHT31;55421;51.600;5.718;2022-11-15T01:22:14;9.95;85.16
68439;SHT31;55421;51.600;5.718;2022-11-15T01:24:40;9.97;85.10
68439;SHT31;55421;51.600;5.718;2022-11-15T01:27:07;9.99;85.17
68439;SHT31;55421;51.600;5.718;2022-11-15T01:29:34;10.01;85.22
68439;SHT31;55421;51.600;5.718;2022-11-15T01:32:01;10.04;85.30
68439;SHT31;55421;51.600;5.718;2022-11-15T01:34:28;10.03;85.33
68439;SHT31;55421;51.600;5.718;2022-11-15T01:36:56;10.04;85.40
68439;SHT31;55421;51.600;5.718;2022-11-15T01:39:22;10.06;85.38
68439;SHT31;55421;51.600;5.718;2022-11-15T01:41:49;10.08;85.40
68439;SHT31;55421;51.600;5.718;2022-11-15T01:47:07;10.11;85.41
68439;SHT31;55421;51.600;5.718;2022-11-15T01:50:00;10.12;85.46
68439;SHT31;55421;51.600;5.718;2022-11-15T01:52:34;10.11;85.42
68439;SHT31;55421;51.600;5.718;2022-11-15T01:55:08;10.12;85.45
68439;SHT31;55421;51.600;5.718;2022-11-15T01:57:41;10.15;85.50
68439;SHT31;55421;51.600;5.718;2022-11-15T02:00:13;10.17;85.52
68439;SHT31;55421;51.600;5.718;2022-11-15T02:02:40;10.17;85.54
68439;SHT31;55421;51.600;5.718;2022-11-15T02:05:07;10.15;85.55
68439;SHT31;55421;51.600;5.718;2022-11-15T02:07:34;10.16;85.60
68439;SHT31;55421;51.600;5.718;2022-11-15T02:10:10;10.17;85.70
68439;SHT31;55421;51.600;5.718;2022-11-15T02:12:43;10.21;85.81
68439;SHT31;55421;51.600;5.718;2022-11-15T02:15:11;10.24;85.96
68439;SHT31;55421;51.600;5.718;2022-11-15T02:26:28;10.35;86.37
68439;SHT31;55421;51.600;5.718;2022-11-15T02:38:46;10.49;86.45
68439;SHT31;55421;51.600;5.718;2022-11-15T02:42:07;10.54;86.55
68439;SHT31;55421;51.600;5.718;2022-11-15T02:45:11;10.57;86.67
68439;SHT31;55421;51.600;5.718;2022-11-15T02:47:46;10.60;86.67
68439;SHT31;55421;51.600;5.718;2022-11-15T02:50:18;10.63;86.60
68439;SHT31;55421;51.600;5.718;2022-11-15T02:52:51;10.65;86.59
68439;SHT31;55421;51.600;5.718;2022-11-15T02:55:28;10.69;86.69
68439;SHT31;55421;51.600;5.718;2022-11-15T03:01:00;10.74;86.77
68439;SHT31;55421;51.600;5.718;2022-11-15T03:07:18;10.82;86.80
68439;SHT31;55421;51.600;5.718;2022-11-15T03:12:57;10.85;86.85
68439;SHT31;55421;51.600;5.718;2022-11-15T03:18:41;10.88;86.93
68439;SHT31;55421;51.600;5.718;2022-11-15T03:21:15;10.91;87.08
68439;SHT31;55421;51.600;5.718;2022-11-15T03:23:44;10.93;87.10
68439;SHT31;55421;51.600;5.718;2022-11-15T03:26:15;10.94;87.19
68439;SHT31;55421;51.600;5.718;2022-11-15T03:28:50;10.94;87.24
68439;SHT31;55421;51.600;5.718;2022-11-15T03:31:23;10.94;87.30
68439;SHT31;55421;51.600;5.718;2022-11-15T03:34:36;10.98;87.31
68439;SHT31;55421;51.600;5.718;2022-11-15T03:37:10;11.02;87.32
68439;SHT31;55421;51.600;5.718;2022-11-15T03:39:43;11.04;87.22
68439;SHT31;55421;51.600;5.718;2022-11-15T03:45:14;11.04;87.23
68439;SHT31;55421;51.600;5.718;2022-11-15T03:48:20;11.06;87.20
68439;SHT31;55421;51.600;5.718;2022-11-15T03:50:50;11.09;87.27
68439;SHT31;55421;51.600;5.718;2022-11-15T03:53:18;11.10;87.32
68439;SHT31;55421;51.600;5.718;2022-11-15T03:55:44;11.12;87.39
68439;SHT31;55421;51.600;5.718;2022-11-15T03:58:11;11.12;87.46
68439;SHT31;55421;51.600;5.718;2022-11-15T04:00:37;11.12;87.44
68439;SHT31;55421;51.600;5.718;2022-11-15T04:03:04;11.15;87.48
68439;SHT31;55421;51.600;5.718;2022-11-15T04:05:30;11.19;87.54
68439;SHT31;55421;51.600;5.718;2022-11-15T04:07:57;11.22;87.53
68439;SHT31;55421;51.600;5.718;2022-11-15T04:10:23;11.24;87.68
68439;SHT31;55421;51.600;5.718;2022-11-15T04:12:50;11.26;87.64
68439;SHT31;55421;51.600;5.718;2022-11-15T04:15:17;11.29;87.59
68439;SHT31;55421;51.600;5.718;2022-11-15T04:17:48;11.32;87.52
68439;SHT31;55421;51.600;5.718;2022-11-15T04:20:19;11.35;87.58
68439;SHT31;55421;51.600;5.718;2022-11-15T04:23:14;11.38;87.51
68439;SHT31;55421;51.600;5.718;2022-11-15T04:26:16;11.39;87.58
68439;SHT31;55421;51.600;5.718;2022-11-15T04:28:48;11.41;87.51
68439;SHT31;55421;51.600;5.718;2022-11-15T04:31:33;11.40;87.42
68439;SHT31;55421;51.600;5.718;2022-11-15T04:34:00;11.41;87.46
68439;SHT31;55421;51.600;5.718;2022-11-15T04:36:27;11.42;87.50
68439;SHT31;55421;51.600;5.718;2022-11-15T04:39:12;11.43;87.50
68439;SHT31;55421;51.600;5.718;2022-11-15T04:41:39;11.44;87.55
68439;SHT31;55421;51.600;5.718;2022-11-15T04:44:05;11.44;87.50
68439;SHT31;55421;51.600;5.718;2022-11-15T04:46:31;11.44;87.48
68439;SHT31;55421;51.600;5.718;2022-11-15T04:48:58;11.46;87.58
68439;SHT31;55421;51.600;5.718;2022-11-15T04:51:25;11.49;87.60
68439;SHT31;55421;51.600;5.718;2022-11-15T04:53:52;11.50;87.60
68439;SHT31;55421;51.600;5.718;2022-11-15T04:56:19;11.51;87.60
68439;SHT31;55421;51.600;5.718;2022-11-15T04:58:48;11.50;87.60
68439;SHT31;55421;51.600;5.718;2022-11-15T05:01:15;11.50;87.58
68439;SHT31;55421;51.600;5.718;2022-11-15T05:03:43;11.52;87.60
68439;SHT31;55421;51.600;5.718;2022-11-15T05:06:29;11.55;87.64
68439;SHT31;55421;51.600;5.718;2022-11-15T05:08:56;11.59;87.69
68439;SHT31;55421;51.600;5.718;2022-11-15T05:11:24;11.58;87.66
68439;SHT31;55421;51.600;5.718;2022-11-15T05:13:50;11.58;87.60
68439;SHT31;55421;51.600;5.718;2022-11-15T05:16:17;11.57;87.60
68439;SHT31;55421;51.600;5.718;2022-11-15T05:18:43;11.57;87.51
68439;SHT31;55421;51.600;5.718;2022-11-15T05:21:11;11.59;87.58
68439;SHT31;55421;51.600;5.718;2022-11-15T05:23:40;11.59;87.60
68439;SHT31;55421;51.600;5.718;2022-11-15T05:26:08;11.56;87.57
68439;SHT31;55421;51.600;5.718;2022-11-15T05:28:35;11.53;87.59
68439;SHT31;55421;51.600;5.718;2022-11-15T05:31:03;11.54;87.60
68439;SHT31;55421;51.600;5.718;2022-11-15T05:33:39;11.56;87.63
68439;SHT31;55421;51.600;5.718;2022-11-15T05:36:09;11.60;87.68
68439;SHT31;55421;51.600;5.718;2022-11-15T05:38:52;11.62;87.69
68439;SHT31;55421;51.600;5.718;2022-11-15T05:41:20;11.63;87.70
68439;SHT31;55421;51.600;5.718;2022-11-15T05:43:55;11.60;87.64
68439;SHT31;55421;51.600;5.718;2022-11-15T05:46:23;11.59;87.71
68439;SHT31;55421;51.600;5.718;2022-11-15T05:48:50;11.60;87.71
68439;SHT31;55421;51.600;5.718;2022-11-15T05:51:20;11.58;87.68
68439;SHT31;55421;51.600;5.718;2022-11-15T05:53:49;11.59;87.70
68439;SHT31;55421;51.600;5.718;2022-11-15T05:56:18;11.58;87.68
68439;SHT31;55421;51.600;5.718;2022-11-15T05:58:45;11.58;87.76
68439;SHT31;55421;51.600;5.718;2022-11-15T06:01:12;11.59;87.89
68439;SHT31;55421;51.600;5.718;2022-11-15T06:03:38;11.63;87.97
68439;SHT31;55421;51.600;5.718;2022-11-15T06:06:05;11.65;88.05
68439;SHT31;55421;51.600;5.718;2022-11-15T06:08:32;11.69;88.10
68439;SHT31;55421;51.600;5.718;2022-11-15T06:11:02;11.72;88.04
68439;SHT31;55421;51.600;5.718;2022-11-15T06:13:33;11.71;87.90
68439;SHT31;55421;51.600;5.718;2022-11-15T06:16:00;11.69;87.90
68439;SHT31;55421;51.600;5.718;2022-11-15T06:18:27;11.70;87.94
68439;SHT31;55421;51.600;5.718;2022-11-15T06:20:53;11.70;87.95
68439;SHT31;55421;51.600;5.718;2022-11-15T06:23:24;11.73;88.00
68439;SHT31;55421;51.600;5.718;2022-11-15T06:25:50;11.75;88.01
68439;SHT31;55421;51.600;5.718;2022-11-15T06:28:17;11.77;88.00
68439;SHT31;55421;51.600;5.718;2022-11-15T06:30:43;11.77;88.00
68439;SHT31;55421;51.600;5.718;2022-11-15T06:33:10;11.77;88.00
68439;SHT31;55421;51.600;5.718;2022-11-15T06:35:36;11.76;87.92
68439;SHT31;55421;51.600;5.718;2022-11-15T06:38:07;11.76;87.90
68439;SHT31;55421;51.600;5.718;2022-11-15T06:40:36;11.76;87.89
68439;SHT31;55421;51.600;5.718;2022-11-15T06:43:06;11.77;87.92
68439;SHT31;55421;51.600;5.718;2022-11-15T06:45:33;11.77;87.99
68439;SHT31;55421;51.600;5.718;2022-11-15T06:48:00;11.78;87.96
68439;SHT31;55421;51.600;5.718;2022-11-15T06:50:26;11.76;88.00
68439;SHT31;55421;51.600;5.718;2022-11-15T06:52:53;11.73;87.98
68439;SHT31;55421;51.600;5.718;2022-11-15T06:55:20;11.72;87.95
68439;SHT31;55421;51.600;5.718;2022-11-15T06:57:48;11.71;88.01
68439;SHT31;55421;51.600;5.718;2022-11-15T07:00:17;11.72;88.09
68439;SHT31;55421;51.600;5.718;2022-11-15T07:02:47;11.72;88.12
68439;SHT31;55421;51.600;5.718;2022-11-15T07:05:14;11.73;88.18
68439;SHT31;55421;51.600;5.718;2022-11-15T07:07:41;11.75;88.29
68439;SHT31;55421;51.600;5.718;2022-11-15T07:10:08;11.76;88.24
68439;SHT31;55421;51.600;5.718;2022-11-15T07:12:35;11.76;88.20
68439;SHT31;55421;51.600;5.718;2022-11-15T07:15:02;11.75;88.20
68439;SHT31;55421;51.600;5.718;2022-11-15T07:17:29;11.78;88.18
68439;SHT31;55421;51.600;5.718;2022-11-15T07:19:55;11.78;88.10
68439;SHT31;55421;51.600;5.718;2022-11-15T07:22:22;11.80;88.09
68439;SHT31;55421;51.600;5.718;2022-11-15T07:24:48;11.83;88.10
68439;SHT31;55421;51.600;5.718;2022-11-15T07:27:14;11.85;88.08
68439;SHT31;55421;51.600;5.718;2022-11-15T07:29:41;11.87;88.02
68439;SHT31;55421;51.600;5.718;2022-11-15T07:32:08;11.86;87.95
68439;SHT31;55421;51.600;5.718;2022-11-15T07:34:35;11.84;87.82
68439;SHT31;55421;51.600;5.718;2022-11-15T07:37:02;11.84;87.80
68439;SHT31;55421;51.600;5.718;2022-11-15T07:39:28;11.87;87.89
68439;SHT31;55421;51.600;5.718;2022-11-15T07:41:58;11.89;87.87
68439;SHT31;55421;51.600;5.718;2022-11-15T07:44:45;11.91;87.88
68439;SHT31;55421;51.600;5.718;2022-11-15T07:47:11;11.92;87.72
68439;SHT31;55421;51.600;5.718;2022-11-15T07:49:38;11.90;87.74
68439;SHT31;55421;51.600;5.718;2022-11-15T07:52:05;11.91;87.70
68439;SHT31;55421;51.600;5.718;2022-11-15T07:54:31;11.91;87.69
68439;SHT31;55421;51.600;5.718;2022-11-15T07:56:58;11.91;87.69
68439;SHT31;55421;51.600;5.718;2022-11-15T07:59:24;11.93;87.68
68439;SHT31;55421;51.600;5.718;2022-11-15T08:01:51;11.95;87.58
68439;SHT31;55421;51.600;5.718;2022-11-15T08:04:17;11.93;87.51
68439;SHT31;55421;51.600;5.718;2022-11-15T08:06:44;11.92;87.52
68439;SHT31;55421;51.600;5.718;2022-11-15T08:09:10;11.89;87.52
68439;SHT31;55421;51.600;5.718;2022-11-15T08:11:37;11.86;87.60
68439;SHT31;55421;51.600;5.718;2022-11-15T08:14:03;11.84;87.53
68439;SHT31;55421;51.600;5.718;2022-11-15T08:16:30;11.84;87.60
68439;SHT31;55421;51.600;5.718;2022-11-15T08:18:56;11.84;87.63
68439;SHT31;55421;51.600;5.718;2022-11-15T08:21:23;11.85;87.60
68439;SHT31;55421;51.600;5.718;2022-11-15T08:23:50;11.86;87.60
68439;SHT31;55421;51.600;5.718;2022-11-15T08:26:16;11.86;87.59
68439;SHT31;55421;51.600;5.718;2022-11-15T08:28:43;11.87;87.52
68439;SHT31;55421;51.600;5.718;2022-11-15T08:31:13;11.85;87.49
68439;SHT31;55421;51.600;5.718;2022-11-15T08:33:43;11.84;87.51
68439;SHT31;55421;51.600;5.718;2022-11-15T08:36:14;11.83;87.52
68439;SHT31;55421;51.600;5.718;2022-11-15T08:38:43;11.85;87.49
68439;SHT31;55421;51.600;5.718;2022-11-15T08:41:11;11.84;87.40
68439;SHT31;55421;51.600;5.718;2022-11-15T08:43:52;11.83;87.33
68439;SHT31;55421;51.600;5.718;2022-11-15T08:46:19;11.84;87.39
68439;SHT31;55421;51.600;5.718;2022-11-15T08:48:45;11.82;87.38
68439;SHT31;55421;51.600;5.718;2022-11-15T08:51:12;11.85;87.46
68439;SHT31;55421;51.600;5.718;2022-11-15T08:53:39;11.88;87.49
68439;SHT31;55421;51.600;5.718;2022-11-15T08:56:09;11.92;87.49
68439;SHT31;55421;51.600;5.718;2022-11-15T08:58:39;11.94;87.36
68439;SHT31;55421;51.600;5.718;2022-11-15T09:01:06;11.93;87.24
68439;SHT31;55421;51.600;5.718;2022-11-15T09:03:44;11.90;87.11
68439;SHT31;55421;51.600;5.718;2022-11-15T09:06:11;11.90;87.17
68439;SHT31;55421;51.600;5.718;2022-11-15T09:08:38;11.89;87.13
68439;SHT31;55421;51.600;5.718;2022-11-15T09:11:06;11.89;87.11
68439;SHT31;55421;51.600;5.718;2022-11-15T09:13:35;11.89;87.02
68439;SHT31;55421;51.600;5.718;2022-11-15T09:16:03;11.91;86.99
68439;SHT31;55421;51.600;5.718;2022-11-15T09:18:30;11.97;86.94
68439;SHT31;55421;51.600;5.718;2022-11-15T09:20:58;12.03;86.89
68439;SHT31;55421;51.600;5.718;2022-11-15T09:23:26;12.07;86.86
68439;SHT31;55421;51.600;5.718;2022-11-15T09:25:57;12.07;86.72
68439;SHT31;55421;51.600;5.718;2022-11-15T09:28:27;12.06;86.63
68439;SHT31;55421;51.600;5.718;2022-11-15T09:30:57;12.05;86.55
68439;SHT31;55421;51.600;5.718;2022-11-15T09:33:25;12.11;86.60
68439;SHT31;55421;51.600;5.718;2022-11-15T09:35:53;12.17;86.60
68439;SHT31;55421;51.600;5.718;2022-11-15T09:38:20;12.23;86.48
68439;SHT31;55421;51.600;5.718;2022-11-15T09:40:52;12.26;86.38
68439;SHT31;55421;51.600;5.718;2022-11-15T09:49:33;12.29;85.85
68439;SHT31;55421;51.600;5.718;2022-11-15T09:51:59;12.32;85.72
68439;SHT31;55421;51.600;5.718;2022-11-15T09:54:36;12.37;85.57
68439;SHT31;55421;51.600;5.718;2022-11-15T10:03:12;12.46;84.81
68439;SHT31;55421;51.600;5.718;2022-11-15T10:05:43;12.54;84.76
68439;SHT31;55421;51.600;5.718;2022-11-15T10:08:28;12.60;84.54
68439;SHT31;55421;51.600;5.718;2022-11-15T10:11:30;12.65;84.16
68439;SHT31;55421;51.600;5.718;2022-11-15T10:14:02;12.70;83.92
68439;SHT31;55421;51.600;5.718;2022-11-15T10:22:40;12.78;82.16
68439;SHT31;55421;51.600;5.718;2022-11-15T10:25:18;12.79;81.82
68439;SHT31;55421;51.600;5.718;2022-11-15T10:27:52;12.79;81.37
68439;SHT31;55421;51.600;5.718;2022-11-15T10:30:43;12.78;80.86
68439;SHT31;55421;51.600;5.718;2022-11-15T10:33:36;12.78;80.51
68439;SHT31;55421;51.600;5.718;2022-11-15T10:41:20;12.89;79.71
68439;SHT31;55421;51.600;5.718;2022-11-15T10:44:07;12.88;79.29
68439;SHT31;55421;51.600;5.718;2022-11-15T10:46:47;12.83;79.10
68439;SHT31;55421;51.600;5.718;2022-11-15T10:49:32;12.78;79.04
68439;SHT31;55421;51.600;5.718;2022-11-15T10:54:54;12.67;77.91
68439;SHT31;55421;51.600;5.718;2022-11-15T10:57:28;12.63;78.17
68439;SHT31;55421;51.600;5.718;2022-11-15T11:00:04;12.60;77.91
68439;SHT31;55421;51.600;5.718;2022-11-15T11:08:05;12.60;78.13
68439;SHT31;55421;51.600;5.718;2022-11-15T11:10:52;12.67;77.91
68439;SHT31;55421;51.600;5.718;2022-11-15T11:13:22;12.72;77.80
68439;SHT31;55421;51.600;5.718;2022-11-15T11:18:56;12.83;77.70
68439;SHT31;55421;51.600;5.718;2022-11-15T11:21:40;12.86;77.50
68439;SHT31;55421;51.600;5.718;2022-11-15T11:24:59;12.86;77.35
68439;SHT31;55421;51.600;5.718;2022-11-15T11:36:39;13.08;77.05
68439;SHT31;55421;51.600;5.718;2022-11-15T11:42:37;13.04;76.92
68439;SHT31;55421;51.600;5.718;2022-11-15T11:50:51;12.85;75.78
68439;SHT31;55421;51.600;5.718;2022-11-15T11:53:34;12.82;75.77
68439;SHT31;55421;51.600;5.718;2022-11-15T11:56:14;12.81;75.43
68439;SHT31;55421;51.600;5.718;2022-11-15T11:58:51;12.81;75.33
68439;SHT31;55421;51.600;5.718;2022-11-15T12:01:34;12.81;75.50
68439;SHT31;55421;51.600;5.718;2022-11-15T12:07:00;12.86;75.83
68439;SHT31;55421;51.600;5.718;2022-11-15T12:12:27;12.93;75.50
68439;SHT31;55421;51.600;5.718;2022-11-15T12:15:09;12.98;75.41
68439;SHT31;55421;51.600;5.718;2022-11-15T12:17:43;13.01;74.85
68439;SHT31;55421;51.600;5.718;2022-11-15T12:20:16;13.02;74.68
68439;SHT31;55421;51.600;5.718;2022-11-15T12:22:58;13.04;74.85
68439;SHT31;55421;51.600;5.718;2022-11-15T12:25:33;13.07;74.66
68439;SHT31;55421;51.600;5.718;2022-11-15T12:31:22;13.13;74.65
68439;SHT31;55421;51.600;5.718;2022-11-15T12:34:28;13.16;74.59
68439;SHT31;55421;51.600;5.718;2022-11-15T12:37:32;13.23;74.43
68439;SHT31;55421;51.600;5.718;2022-11-15T12:45:40;13.30;73.81
68439;SHT31;55421;51.600;5.718;2022-11-15T12:58:42;13.21;73.34
68439;SHT31;55421;51.600;5.718;2022-11-15T13:06:46;13.17;72.37
68439;SHT31;55421;51.600;5.718;2022-11-15T13:14:49;13.19;72.64
68439;SHT31;55421;51.600;5.718;2022-11-15T13:19:55;13.21;72.43
68439;SHT31;55421;51.600;5.718;2022-11-15T13:22:28;13.22;72.58
68439;SHT31;55421;51.600;5.718;2022-11-15T13:28:10;13.19;72.63
68439;SHT31;55421;51.600;5.718;2022-11-15T13:30:41;13.16;72.25
68439;SHT31;55421;51.600;5.718;2022-11-15T13:33:18;13.17;72.08
68439;SHT31;55421;51.600;5.718;2022-11-15T13:35:59;13.17;71.78
68439;SHT31;55421;51.600;5.718;2022-11-15T13:38:54;13.16;72.06
68439;SHT31;55421;51.600;5.718;2022-11-15T13:41:29;13.14;71.89
68439;SHT31;55421;51.600;5.718;2022-11-15T13:43:59;13.11;71.92
68439;SHT31;55421;51.600;5.718;2022-11-15T13:46:28;13.09;71.93
68439;SHT31;55421;51.600;5.718;2022-11-15T13:49:02;13.05;72.01
68439;SHT31;55421;51.600;5.718;2022-11-15T13:51:47;13.05;71.83
68439;SHT31;55421;51.600;5.718;2022-11-15T13:54:30;13.07;71.73
68439;SHT31;55421;51.600;5.718;2022-11-15T13:57:23;13.10;71.81
68439;SHT31;55421;51.600;5.718;2022-11-15T13:59:54;13.14;71.70
68439;SHT31;55421;51.600;5.718;2022-11-15T14:02:31;13.15;71.61
68439;SHT31;55421;51.600;5.718;2022-11-15T14:05:03;13.15;71.27
68439;SHT31;55421;51.600;5.718;2022-11-15T14:07:53;13.13;71.42
68439;SHT31;55421;51.600;5.718;2022-11-15T14:10:33;13.10;71.58
68439;SHT31;55421;51.600;5.718;2022-11-15T14:13:03;13.06;71.37
68439;SHT31;55421;51.600;5.718;2022-11-15T14:15:37;13.02;71.38
68439;SHT31;55421;51.600;5.718;2022-11-15T14:18:06;12.98;71.48
68439;SHT31;55421;51.600;5.718;2022-11-15T14:21:10;12.93;71.66
68439;SHT31;55421;51.600;5.718;2022-11-15T14:23:38;12.89;71.62
68439;SHT31;55421;51.600;5.718;2022-11-15T14:26:05;12.88;71.66
68439;SHT31;55421;51.600;5.718;2022-11-15T14:28:33;12.90;71.59
68439;SHT31;55421;51.600;5.718;2022-11-15T14:31:07;12.91;71.49
68439;SHT31;55421;51.600;5.718;2022-11-15T14:33:41;12.93;71.49
68439;SHT31;55421;51.600;5.718;2022-11-15T14:38:39;12.93;71.47
68439;SHT31;55421;51.600;5.718;2022-11-15T14:41:10;12.92;71.46
68439;SHT31;55421;51.600;5.718;2022-11-15T14:43:45;12.90;71.34
68439;SHT31;55421;51.600;5.718;2022-11-15T14:46:11;12.89;71.29
68439;SHT31;55421;51.600;5.718;2022-11-15T14:48:38;12.91;71.25
68439;SHT31;55421;51.600;5.718;2022-11-15T14:51:09;12.94;71.14
68439;SHT31;55421;51.600;5.718;2022-11-15T14:53:42;12.95;71.17
68439;SHT31;55421;51.600;5.718;2022-11-15T14:56:10;12.96;71.16
68439;SHT31;55421;51.600;5.718;2022-11-15T14:58:37;12.95;71.14
68439;SHT31;55421;51.600;5.718;2022-11-15T15:01:12;12.93;71.00
68439;SHT31;55421;51.600;5.718;2022-11-15T15:03:45;12.91;70.91
68439;SHT31;55421;51.600;5.718;2022-11-15T15:06:11;12.89;70.88
68439;SHT31;55421;51.600;5.718;2022-11-15T15:08:40;12.88;70.82
68439;SHT31;55421;51.600;5.718;2022-11-15T15:11:10;12.88;70.77
68439;SHT31;55421;51.600;5.718;2022-11-15T15:13:42;12.88;70.43
68439;SHT31;55421;51.600;5.718;2022-11-15T15:16:08;12.89;70.56
68439;SHT31;55421;51.600;5.718;2022-11-15T15:18:35;12.88;70.53
68439;SHT31;55421;51.600;5.718;2022-11-15T15:21:02;12.85;70.57
68439;SHT31;55421;51.600;5.718;2022-11-15T15:23:33;12.81;70.51
68439;SHT31;55421;51.600;5.718;2022-11-15T15:26:01;12.77;70.44
68439;SHT31;55421;51.600;5.718;2022-11-15T15:28:29;12.73;70.61
68439;SHT31;55421;51.600;5.718;2022-11-15T15:30:56;12.71;70.57
68439;SHT31;55421;51.600;5.718;2022-11-15T15:33:22;12.72;70.59
68439;SHT31;55421;51.600;5.718;2022-11-15T15:35:49;12.73;70.65
68439;SHT31;55421;51.600;5.718;2022-11-15T15:38:15;12.72;70.75
68439;SHT31;55421;51.600;5.718;2022-11-15T15:40:42;12.70;70.82
68439;SHT31;55421;51.600;5.718;2022-11-15T15:43:08;12.68;70.84
68439;SHT31;55421;51.600;5.718;2022-11-15T15:45:38;12.67;70.89
68439;SHT31;55421;51.600;5.718;2022-11-15T15:48:10;12.64;70.94
68439;SHT31;55421;51.600;5.718;2022-11-15T15:50:39;12.66;71.12
68439;SHT31;55421;51.600;5.718;2022-11-15T15:53:09;12.67;71.21
68439;SHT31;55421;51.600;5.718;2022-11-15T15:55:37;12.69;71.32
68439;SHT31;55421;51.600;5.718;2022-11-15T15:58:05;12.70;71.50
68439;SHT31;55421;51.600;5.718;2022-11-15T16:00:32;12.69;71.65
68439;SHT31;55421;51.600;5.718;2022-11-15T16:02:59;12.68;71.82
68439;SHT31;55421;51.600;5.718;2022-11-15T16:05:26;12.66;71.94
68439;SHT31;55421;51.600;5.718;2022-11-15T16:07:52;12.64;72.15
68439;SHT31;55421;51.600;5.718;2022-11-15T16:10:29;12.63;72.42
68439;SHT31;55421;51.600;5.718;2022-11-15T16:12:59;12.65;72.57
68439;SHT31;55421;51.600;5.718;2022-11-15T16:15:27;12.65;72.73
68439;SHT31;55421;51.600;5.718;2022-11-15T16:17:58;12.65;72.82
68439;SHT31;55421;51.600;5.718;2022-11-15T16:20:39;12.65;72.98
68439;SHT31;55421;51.600;5.718;2022-11-15T16:23:09;12.64;73.15
68439;SHT31;55421;51.600;5.718;2022-11-15T16:25:49;12.63;73.30
68439;SHT31;55421;51.600;5.718;2022-11-15T16:30:49;12.66;73.54
68439;SHT31;55421;51.600;5.718;2022-11-15T16:33:26;12.69;73.67
68439;SHT31;55421;51.600;5.718;2022-11-15T16:35:52;12.69;73.79
68439;SHT31;55421;51.600;5.718;2022-11-15T16:38:19;12.70;74.00
68439;SHT31;55421;51.600;5.718;2022-11-15T16:40:45;12.68;74.18
68439;SHT31;55421;51.600;5.718;2022-11-15T16:43:12;12.68;74.42
68439;SHT31;55421;51.600;5.718;2022-11-15T16:45:39;12.68;74.67
68439;SHT31;55421;51.600;5.718;2022-11-15T16:48:05;12.71;74.84
68439;SHT31;55421;51.600;5.718;2022-11-15T16:50:32;12.71;75.08
68439;SHT31;55421;51.600;5.718;2022-11-15T16:53:06;12.73;75.30
68439;SHT31;55421;51.600;5.718;2022-11-15T16:55:33;12.70;75.52
68439;SHT31;55421;51.600;5.718;2022-11-15T16:57:59;12.70;75.77
68439;SHT31;55421;51.600;5.718;2022-11-15T17:00:27;12.70;76.04
68439;SHT31;55421;51.600;5.718;2022-11-15T17:02:54;12.72;76.24
68439;SHT31;55421;51.600;5.718;2022-11-15T17:05:21;12.73;76.51
68439;SHT31;55421;51.600;5.718;2022-11-15T17:07:50;12.73;76.70
68439;SHT31;55421;51.600;5.718;2022-11-15T17:10:20;12.72;76.88
68439;SHT31;55421;51.600;5.718;2022-11-15T17:12:49;12.70;77.14
68439;SHT31;55421;51.600;5.718;2022-11-15T17:15:17;12.66;77.42
68439;SHT31;55421;51.600;5.718;2022-11-15T17:17:44;12.64;77.68
68439;SHT31;55421;51.600;5.718;2022-11-15T17:20:19;12.61;77.96
68439;SHT31;55421;51.600;5.718;2022-11-15T17:22:50;12.58;78.15
68439;SHT31;55421;51.600;5.718;2022-11-15T17:25:18;12.56;78.34
68439;SHT31;55421;51.600;5.718;2022-11-15T17:27:45;12.52;78.59
68439;SHT31;55421;51.600;5.718;2022-11-15T17:30:12;12.48;78.77
68439;SHT31;55421;51.600;5.718;2022-11-15T17:32:41;12.47;78.99
68439;SHT31;55421;51.600;5.718;2022-11-15T17:35:09;12.46;79.21
68439;SHT31;55421;51.600;5.718;2022-11-15T17:37:38;12.45;79.43
68439;SHT31;55421;51.600;5.718;2022-11-15T17:40:05;12.43;79.61
68439;SHT31;55421;51.600;5.718;2022-11-15T17:42:32;12.41;79.85
68439;SHT31;55421;51.600;5.718;2022-11-15T17:44:59;12.39;80.09
68439;SHT31;55421;51.600;5.718;2022-11-15T17:47:25;12.38;80.30
68439;SHT31;55421;51.600;5.718;2022-11-15T17:49:52;12.38;80.48
68439;SHT31;55421;51.600;5.718;2022-11-15T17:52:18;12.38;80.63
68439;SHT31;55421;51.600;5.718;2022-11-15T17:54:44;12.36;80.85
68439;SHT31;55421;51.600;5.718;2022-11-15T17:57:11;12.33;81.02
68439;SHT31;55421;51.600;5.718;2022-11-15T17:59:37;12.30;81.20
68439;SHT31;55421;51.600;5.718;2022-11-15T18:02:04;12.29;81.31
68439;SHT31;55421;51.600;5.718;2022-11-15T18:04:31;12.28;81.46
68439;SHT31;55421;51.600;5.718;2022-11-15T18:06:58;12.29;81.60
68439;SHT31;55421;51.600;5.718;2022-11-15T18:09:24;12.30;81.73
68439;SHT31;55421;51.600;5.718;2022-11-15T18:11:51;12.30;81.83
68439;SHT31;55421;51.600;5.718;2022-11-15T18:14:19;12.27;82.03